Time;durP1;ratioP1;P1;durP2;ratioP2;P2;SDS_P1;SDS_P2;PMS_P1;PMS_P2;Temp;Humidity;BMP_temperature;BMP_pressure;BME280_temperature;BME280_humidity;BME280_pressure;Samples;Min_cycle;Max_cycle;Signal;HPM_P1;HPM_P2
2023/09/04 00:02:03;;;;;;;105.65;100.20;;;24.60;99.90;;;;;;5032887;28;20041;-74
2023/09/04 00:04:30;;;;;;;107.75;102.40;;;24.60;99.90;;;;;;5033171;28;20041;-74
2023/09/04 00:06:56;;;;;;;100.95;96.00;;;24.60;99.90;;;;;;5033153;28;20030;-75
2023/09/04 00:09:22;;;;;;;107.35;101.88;;;24.50;99.90;;;;;;5033402;28;20033;-74
2023/09/04 00:11:49;;;;;;;104.22;99.15;;;24.50;99.90;;;;;;5031618;28;20041;-75
2023/09/04 00:14:16;;;;;;;103.28;98.13;;;24.50;99.90;;;;;;5033396;28;20356;-74
2023/09/04 00:16:42;;;;;;;209.30;198.88;;;24.50;99.90;;;;;;5032751;28;20048;-75
2023/09/04 00:19:08;;;;;;;130.15;123.60;;;24.40;99.90;;;;;;5015616;28;20034;-75
2023/09/04 00:21:34;;;;;;;83.65;79.47;;;24.40;99.90;;;;;;5032981;28;20033;-75
2023/09/04 00:24:01;;;;;;;187.48;178.00;;;24.40;99.90;;;;;;5032219;28;20028;-74
2023/09/04 00:26:27;;;;;;;98.05;93.05;;;24.40;99.90;;;;;;5031407;28;20041;-75
2023/09/04 00:28:53;;;;;;;316.45;299.70;;;24.30;99.90;;;;;;5033211;28;20029;-75
2023/09/04 00:31:19;;;;;;;88.78;84.30;;;24.30;99.90;;;;;;5032205;28;20044;-75
2023/09/04 00:33:45;;;;;;;89.65;85.20;;;24.30;99.90;;;;;;5031903;28;20045;-75
2023/09/04 00:36:11;;;;;;;107.07;101.78;;;24.40;99.90;;;;;;5032650;28;20482;-74
2023/09/04 00:38:37;;;;;;;77.60;73.40;;;24.30;99.90;;;;;;5032979;28;20025;-75
2023/09/04 00:41:03;;;;;;;128.75;121.85;;;24.30;99.90;;;;;;5032264;28;20371;-75
2023/09/04 00:43:36;;;;;;;74.32;70.70;;;24.20;99.90;;;;;;5031758;28;20029;-75
2023/09/04 00:46:03;;;;;;;88.00;83.70;;;24.20;99.90;;;;;;5030966;28;20037;-74
2023/09/04 00:48:29;;;;;;;170.63;162.23;;;24.30;99.90;;;;;;5031587;28;20036;-75
2023/09/04 00:50:55;;;;;;;124.40;118.25;;;24.20;99.90;;;;;;5031200;28;20045;-74
2023/09/04 00:53:21;;;;;;;87.68;83.22;;;24.20;99.90;;;;;;5031390;28;20049;-74
2023/09/04 00:55:48;;;;;;;121.38;115.35;;;24.20;99.90;;;;;;5030830;28;20029;-75
2023/09/04 00:58:14;;;;;;;115.07;109.25;;;24.10;99.90;;;;;;5031452;28;20029;-75
2023/09/04 01:00:40;;;;;;;119.47;113.30;;;24.00;99.90;;;;;;5030656;28;20077;-75
2023/09/04 01:03:06;;;;;;;178.80;169.98;;;24.10;99.90;;;;;;5031463;28;20038;-75
2023/09/04 01:05:33;;;;;;;86.22;81.85;;;24.10;99.90;;;;;;5031118;28;20482;-75
2023/09/04 01:08:00;;;;;;;144.43;137.38;;;24.00;99.90;;;;;;5032537;28;20037;-75
2023/09/04 01:10:30;;;;;;;168.45;160.02;;;24.10;99.90;;;;;;5030618;28;20032;-75
2023/09/04 01:13:07;;;;;;;128.27;121.82;;;24.20;99.90;;;;;;5031324;28;20386;-75
2023/09/04 01:15:33;;;;;;;91.13;86.63;;;24.10;99.90;;;;;;5029629;28;20034;-75
2023/09/04 01:17:59;;;;;;;92.18;87.65;;;24.10;99.90;;;;;;5031190;28;20358;-75
2023/09/04 01:20:27;;;;;;;96.22;91.45;;;24.00;99.90;;;;;;5031006;28;20395;-75
2023/09/04 01:22:54;;;;;;;89.05;84.68;;;24.10;99.90;;;;;;5031040;28;20029;-75
2023/09/04 01:25:38;;;;;;;91.78;87.28;;;24.00;99.90;;;;;;5030565;28;20034;-75
2023/09/04 01:28:13;;;;;;;108.28;102.88;;;23.90;99.90;;;;;;5031180;28;20462;-75
2023/09/04 01:31:00;;;;;;;111.10;105.57;;;23.90;99.90;;;;;;5030174;28;20045;-75
2023/09/04 01:33:29;;;;;;;151.50;144.10;;;23.80;99.90;;;;;;5031054;28;20022;-75
2023/09/04 01:35:56;;;;;;;99.80;94.90;;;23.80;99.90;;;;;;5030632;28;20030;-75
2023/09/04 01:38:22;;;;;;;154.43;146.55;;;23.80;99.90;;;;;;5030956;28;20030;-75
2023/09/04 01:40:52;;;;;;;71.97;68.25;;;23.80;99.90;;;;;;5030471;28;20489;-75
2023/09/04 01:43:18;;;;;;;148.50;141.27;;;23.80;99.90;;;;;;5030968;28;20493;-75
2023/09/04 01:45:44;;;;;;;65.10;61.65;;;23.80;99.90;;;;;;5030128;28;20513;-75
2023/09/04 01:48:10;;;;;;;94.03;89.13;;;23.70;99.90;;;;;;5030968;28;20045;-75
2023/09/04 01:50:36;;;;;;;111.75;106.28;;;23.80;99.90;;;;;;5031868;28;20037;-75
2023/09/04 01:53:03;;;;;;;230.38;219.02;;;23.80;99.90;;;;;;5031789;28;20052;-75
2023/09/04 01:55:29;;;;;;;82.63;78.43;;;23.80;99.90;;;;;;5031506;28;20041;-75
2023/09/04 01:57:55;;;;;;;72.30;68.75;;;23.80;99.90;;;;;;5029916;28;20052;-75
2023/09/04 02:00:21;;;;;;;83.85;79.55;;;23.70;99.90;;;;;;5027203;28;20033;-75
2023/09/04 02:02:47;;;;;;;69.57;66.05;;;23.60;99.90;;;;;;5026550;28;20037;-75
2023/09/04 02:05:13;;;;;;;68.00;64.47;;;23.60;99.90;;;;;;5030090;28;20032;-75
2023/09/04 02:07:40;;;;;;;70.70;67.00;;;23.60;99.90;;;;;;5030430;28;20030;-75
2023/09/04 02:10:06;;;;;;;315.70;299.33;;;23.40;99.90;;;;;;5029918;28;20028;-75
2023/09/04 02:12:32;;;;;;;100.22;95.15;;;23.30;99.90;;;;;;5030241;28;20040;-75
2023/09/04 02:14:58;;;;;;;90.10;85.45;;;23.30;99.90;;;;;;5030412;28;20397;-75
2023/09/04 02:17:24;;;;;;;67.30;63.78;;;23.30;99.90;;;;;;5028486;28;20045;-74
2023/09/04 02:19:50;;;;;;;97.53;92.75;;;23.40;99.90;;;;;;5030349;28;20386;-75
2023/09/04 02:22:16;;;;;;;74.47;70.68;;;23.40;99.90;;;;;;5028465;28;20029;-74
2023/09/04 02:24:46;;;;;;;87.07;82.78;;;23.30;99.90;;;;;;5030333;28;20390;-74
2023/09/04 02:27:12;;;;;;;85.88;81.40;;;23.30;99.90;;;;;;5031497;28;20029;-75
2023/09/04 02:29:38;;;;;;;128.60;122.38;;;23.30;99.90;;;;;;5032648;28;20032;-75
2023/09/04 02:32:04;;;;;;;90.82;86.25;;;23.30;99.90;;;;;;5033091;28;20050;-74
2023/09/04 02:34:31;;;;;;;82.85;78.72;;;23.40;99.90;;;;;;5032786;28;20029;-75
2023/09/04 02:36:58;;;;;;;91.40;86.90;;;23.50;99.90;;;;;;5033853;28;20038;-75
2023/09/04 02:39:24;;;;;;;74.72;70.93;;;23.60;99.90;;;;;;5033719;28;20399;-74
2023/09/04 02:41:50;;;;;;;121.03;115.10;;;23.60;99.90;;;;;;5034918;28;20037;-75
2023/09/04 02:44:16;;;;;;;56.35;53.50;;;23.50;99.90;;;;;;5035064;28;20021;-75
2023/09/04 02:46:42;;;;;;;99.07;94.25;;;23.50;99.90;;;;;;5034457;28;20052;-74
2023/09/04 02:49:08;;;;;;;154.75;147.23;;;23.40;99.90;;;;;;5033968;28;20394;-75
2023/09/04 02:51:34;;;;;;;97.20;92.38;;;23.30;99.90;;;;;;5034209;28;20041;-75
2023/09/04 02:54:01;;;;;;;58.30;54.92;;;23.30;99.90;;;;;;5034942;28;20041;-74
2023/09/04 02:56:27;;;;;;;64.05;60.83;;;23.10;99.90;;;;;;5034596;28;20391;-75
2023/09/04 02:58:53;;;;;;;93.22;88.45;;;23.10;99.90;;;;;;5017452;28;20033;-75
2023/09/04 03:01:19;;;;;;;124.43;118.35;;;23.00;99.90;;;;;;5034063;28;20449;-74
2023/09/04 03:03:46;;;;;;;69.60;66.05;;;23.00;99.90;;;;;;5034637;28;20025;-75
2023/09/04 03:06:12;;;;;;;117.60;111.90;;;23.00;99.90;;;;;;5034151;28;20026;-75
2023/09/04 03:08:38;;;;;;;215.25;204.60;;;23.00;99.90;;;;;;5034840;28;20040;-75
2023/09/04 03:11:09;;;;;;;101.15;95.97;;;23.00;99.90;;;;;;5034286;28;20044;-75
2023/09/04 03:13:37;;;;;;;110.40;104.97;;;23.10;99.90;;;;;;5034481;28;20032;-75
2023/09/04 03:16:04;;;;;;;120.18;114.38;;;23.00;99.90;;;;;;5032599;28;20403;-74
2023/09/04 03:18:30;;;;;;;84.80;80.53;;;23.00;99.90;;;;;;5016855;28;20513;-75
2023/09/04 03:20:56;;;;;;;95.43;90.75;;;23.00;99.90;;;;;;5033879;28;20037;-75
2023/09/04 03:23:23;;;;;;;58.85;55.83;;;22.90;99.90;;;;;;5033211;28;20028;-74
2023/09/04 03:25:49;;;;;;;80.55;76.50;;;22.90;99.90;;;;;;5032980;28;20467;-75
2023/09/04 03:28:15;;;;;;;193.63;183.68;;;23.00;99.90;;;;;;5034331;28;20034;-75
2023/09/04 03:30:41;;;;;;;202.20;192.40;;;23.00;99.90;;;;;;5033343;28;20509;-75
2023/09/04 03:33:07;;;;;;;91.05;86.47;;;23.10;99.90;;;;;;5034240;28;20030;-75
2023/09/04 03:35:33;;;;;;;107.93;102.82;;;23.10;99.90;;;;;;5032339;28;20041;-75
2023/09/04 03:37:59;;;;;;;139.05;132.45;;;23.00;99.90;;;;;;5031943;28;20029;-75
2023/09/04 03:40:26;;;;;;;73.63;70.05;;;23.00;99.90;;;;;;5032565;28;20403;-75
2023/09/04 03:42:52;;;;;;;63.35;60.20;;;22.90;99.90;;;;;;5032457;28;20044;-74
2023/09/04 03:45:19;;;;;;;76.95;73.05;;;22.80;99.90;;;;;;5033330;28;20383;-75
2023/09/04 03:47:45;;;;;;;96.07;91.35;;;22.80;99.90;;;;;;5032633;28;20052;-75
2023/09/04 03:50:12;;;;;;;69.43;65.80;;;22.80;99.90;;;;;;5033354;28;20393;-75
2023/09/04 03:52:38;;;;;;;165.18;157.30;;;22.80;99.90;;;;;;5033775;28;20041;-74
2023/09/04 03:55:08;;;;;;;146.55;139.38;;;22.80;99.90;;;;;;5032535;28;20033;-75
2023/09/04 03:57:36;;;;;;;160.20;152.60;;;22.80;99.90;;;;;;5034174;28;20046;-75
2023/09/04 04:00:14;;;;;;;226.93;215.07;;;22.70;99.90;;;;;;5032696;28;20052;-74
2023/09/04 04:02:41;;;;;;;212.93;202.68;;;22.70;99.90;;;;;;5027063;28;20042;-75
2023/09/04 04:05:09;;;;;;;427.17;404.92;;;22.70;99.90;;;;;;5032141;28;20030;-75
2023/09/04 04:07:35;;;;;;;177.70;169.02;;;22.60;99.90;;;;;;5012588;28;20040;-75
2023/09/04 04:10:01;;;;;;;315.70;299.77;;;22.60;99.90;;;;;;5013763;28;20026;-75
2023/09/04 04:12:27;;;;;;;169.32;160.77;;;22.50;99.90;;;;;;5032314;28;20041;-75
2023/09/04 04:14:55;;;;;;;86.18;82.03;;;22.50;99.90;;;;;;5033480;28;20029;-75
2023/09/04 04:17:21;;;;;;;467.42;443.73;;;22.60;99.90;;;;;;5031477;28;20053;-73
2023/09/04 04:19:49;;;;;;;263.40;249.88;;;22.50;99.90;;;;;;5031941;28;20028;-75
2023/09/04 04:22:15;;;;;;;112.43;106.82;;;22.50;99.90;;;;;;5033029;28;20382;-75
2023/09/04 04:24:41;;;;;;;166.48;158.70;;;22.60;99.90;;;;;;5033184;28;20026;-75
2023/09/04 04:27:08;;;;;;;125.75;119.82;;;22.60;99.90;;;;;;5032869;28;20068;-74
2023/09/04 04:29:34;;;;;;;179.88;171.57;;;22.50;99.90;;;;;;5031744;28;20406;-75
2023/09/04 04:32:00;;;;;;;136.35;129.95;;;22.50;99.90;;;;;;5014565;28;20056;-75
2023/09/04 04:34:26;;;;;;;119.72;113.95;;;22.50;99.90;;;;;;5032688;28;20037;-75
2023/09/04 04:36:55;;;;;;;115.20;109.72;;;22.50;99.90;;;;;;5032799;28;20394;-75
2023/09/04 04:39:21;;;;;;;125.47;119.55;;;22.40;99.90;;;;;;5031820;28;20021;-75
2023/09/04 04:41:48;;;;;;;130.68;124.60;;;22.30;99.90;;;;;;5032737;28;20033;-75
2023/09/04 04:44:14;;;;;;;132.95;126.65;;;22.40;99.90;;;;;;5031713;28;20030;-75
2023/09/04 04:46:41;;;;;;;115.95;110.47;;;22.40;99.90;;;;;;5031031;28;20044;-75
2023/09/04 04:49:07;;;;;;;161.82;154.32;;;22.40;99.90;;;;;;5032269;28;20494;-75
2023/09/04 04:51:33;;;;;;;111.95;106.65;;;22.40;99.90;;;;;;5031035;28;20394;-75
2023/09/04 04:53:59;;;;;;;65.07;61.83;;;22.30;99.90;;;;;;5031542;28;20042;-75
2023/09/04 04:56:25;;;;;;;50.67;48.10;;;22.30;99.90;;;;;;5031146;28;20041;-75
2023/09/04 04:58:51;;;;;;;85.25;81.13;;;22.40;99.90;;;;;;5032817;28;20025;-74
2023/09/04 05:01:17;;;;;;;42.22;39.90;;;22.20;99.90;;;;;;5031632;28;20037;-75
2023/09/04 05:03:43;;;;;;;59.50;56.47;;;22.10;99.90;;;;;;5031061;28;20044;-75
2023/09/04 05:06:10;;;;;;;69.18;65.78;;;22.10;99.90;;;;;;5032599;28;20033;-75
2023/09/04 05:08:36;;;;;;;55.03;52.13;;;22.10;99.90;;;;;;5032515;28;20029;-75
2023/09/04 05:11:06;;;;;;;51.65;49.03;;;22.10;99.90;;;;;;5030727;28;20037;-75
2023/09/04 05:13:32;;;;;;;39.28;37.00;;;22.10;99.90;;;;;;5031287;28;20552;-75
2023/09/04 05:16:04;;;;;;;54.92;52.13;;;22.10;99.90;;;;;;5030690;28;20034;-75
2023/09/04 05:18:31;;;;;;;69.63;66.22;;;22.00;99.90;;;;;;5032362;28;20486;-75
2023/09/04 05:20:57;;;;;;;38.72;36.65;;;21.90;99.90;;;;;;5030973;28;20022;-75
2023/09/04 05:23:23;;;;;;;80.45;76.40;;;21.90;99.90;;;;;;5031128;28;20032;-75
2023/09/04 05:25:53;;;;;;;46.80;44.42;;;21.90;99.90;;;;;;5030816;28;20022;-75
2023/09/04 05:28:19;;;;;;;100.32;95.30;;;22.00;99.90;;;;;;5032254;28;20045;-75
2023/09/04 05:30:45;;;;;;;89.55;85.18;;;22.00;99.90;;;;;;5029814;28;20033;-74
2023/09/04 05:33:11;;;;;;;56.65;53.65;;;22.00;99.90;;;;;;5031067;28;20045;-75
2023/09/04 05:35:38;;;;;;;53.25;50.55;;;22.10;99.90;;;;;;5032348;28;20052;-75
2023/09/04 05:38:04;;;;;;;68.95;65.50;;;22.20;99.90;;;;;;5031050;28;20037;-75
2023/09/04 05:40:30;;;;;;;81.65;77.75;;;22.10;99.90;;;;;;5032090;28;20061;-75
2023/09/04 05:42:59;;;;;;;85.30;81.22;;;22.10;99.90;;;;;;5032119;28;20033;-75
2023/09/04 05:45:25;;;;;;;64.60;61.42;;;22.10;99.90;;;;;;5031035;28;20029;-76
2023/09/04 05:47:51;;;;;;;40.78;38.40;;;22.10;99.90;;;;;;5030981;28;20038;-75
2023/09/04 05:50:17;;;;;;;55.33;52.50;;;22.10;99.90;;;;;;5031679;28;20029;-75
2023/09/04 05:52:43;;;;;;;84.47;80.40;;;22.10;99.90;;;;;;5031945;28;20395;-75
2023/09/04 05:55:09;;;;;;;53.58;50.88;;;22.10;99.90;;;;;;5030807;28;20032;-75
2023/09/04 05:57:36;;;;;;;103.00;97.97;;;22.20;99.90;;;;;;5031956;28;20034;-75
2023/09/04 06:00:06;;;;;;;67.22;63.78;;;22.20;99.90;;;;;;5030422;28;20370;-75
2023/09/04 06:02:32;;;;;;;63.58;60.22;;;22.10;99.90;;;;;;5032781;28;20049;-75
2023/09/04 06:04:58;;;;;;;66.38;63.15;;;22.20;99.90;;;;;;5035952;28;20026;-75
2023/09/04 06:07:25;;;;;;;40.03;37.83;;;22.30;99.90;;;;;;5035529;28;20045;-74
2023/09/04 06:09:51;;;;;;;44.30;41.95;;;22.20;99.90;;;;;;5036073;28;20060;-75
2023/09/04 06:12:17;;;;;;;66.47;63.00;;;22.20;99.90;;;;;;5035459;28;20041;-75
2023/09/04 06:14:43;;;;;;;86.60;82.53;;;22.20;99.90;;;;;;5035503;28;20032;-75
2023/09/04 06:17:09;;;;;;;114.00;108.65;;;22.30;99.90;;;;;;5034958;28;20054;-75
2023/09/04 06:19:35;;;;;;;79.15;75.32;;;22.40;99.90;;;;;;5034432;28;20493;-75
2023/09/04 06:22:01;;;;;;;51.05;48.15;;;22.40;99.90;;;;;;5034136;28;20037;-74
2023/09/04 06:24:28;;;;;;;48.35;45.53;;;22.40;99.90;;;;;;5035614;28;20383;-75
2023/09/04 06:26:54;;;;;;;56.08;53.22;;;22.40;99.90;;;;;;5035273;28;20037;-75
2023/09/04 06:29:21;;;;;;;55.25;52.47;;;22.60;99.90;;;;;;5033872;28;20527;-75
2023/09/04 06:31:47;;;;;;;41.88;39.40;;;22.60;99.90;;;;;;5034480;28;20060;-75
2023/09/04 06:34:13;;;;;;;41.72;39.65;;;22.70;99.90;;;;;;5034265;28;20029;-75
2023/09/04 06:36:39;;;;;;;41.08;39.03;;;22.70;99.90;;;;;;5035159;28;20029;-75
2023/09/04 06:39:06;;;;;;;55.88;53.00;;;22.70;99.90;;;;;;5035218;28;20029;-75
2023/09/04 06:41:32;;;;;;;75.13;71.47;;;22.80;99.90;;;;;;5035018;28;20654;-75
2023/09/04 06:43:59;;;;;;;135.68;129.32;;;22.80;99.90;;;;;;5034972;28;20029;-75
2023/09/04 06:46:25;;;;;;;145.20;138.35;;;23.00;99.90;;;;;;5033193;28;20029;-75
2023/09/04 06:48:51;;;;;;;92.65;88.05;;;23.10;99.90;;;;;;5034886;28;20072;-75
2023/09/04 06:51:17;;;;;;;70.50;67.05;;;23.20;99.90;;;;;;5034528;28;20026;-75
2023/09/04 06:53:43;;;;;;;88.72;84.50;;;23.20;99.90;;;;;;5034850;28;20050;-75
2023/09/04 06:56:09;;;;;;;65.15;61.85;;;23.20;99.90;;;;;;5034588;28;20041;-75
2023/09/04 06:58:36;;;;;;;62.00;58.78;;;23.20;99.90;;;;;;5034433;28;20033;-75
2023/09/04 07:01:03;;;;;;;62.35;59.15;;;23.00;99.90;;;;;;5033770;28;20078;-75
2023/09/04 07:03:29;;;;;;;80.07;76.13;;;23.00;99.90;;;;;;5033654;28;20021;-75
2023/09/04 07:05:55;;;;;;;103.63;98.45;;;23.10;99.90;;;;;;5032492;28;20490;-75
2023/09/04 07:08:22;;;;;;;69.75;66.22;;;23.20;99.90;;;;;;5034794;28;20041;-74
2023/09/04 07:10:48;;;;;;;102.10;96.70;;;23.40;99.90;;;;;;5033253;28;20044;-75
2023/09/04 07:13:15;;;;;;;73.38;69.85;;;23.50;99.90;;;;;;5033006;28;20042;-75
2023/09/04 07:15:41;;;;;;;71.95;68.45;;;23.50;99.90;;;;;;5033871;28;20033;-75
2023/09/04 07:18:07;;;;;;;47.03;44.75;;;23.60;99.90;;;;;;5034561;28;20037;-75
2023/09/04 07:20:33;;;;;;;62.25;58.90;;;23.70;99.90;;;;;;5032962;28;20024;-75
2023/09/04 07:22:59;;;;;;;66.03;62.63;;;23.70;99.90;;;;;;5033283;28;20117;-78
2023/09/04 07:25:25;;;;;;;77.85;73.85;;;23.70;99.90;;;;;;5034076;28;20025;-74
2023/09/04 07:27:51;;;;;;;68.28;64.75;;;23.90;99.90;;;;;;5032937;28;20045;-75
2023/09/04 07:30:17;;;;;;;59.90;56.83;;;24.00;99.90;;;;;;5032286;28;20029;-75
2023/09/04 07:32:43;;;;;;;60.08;57.00;;;24.10;99.90;;;;;;5034061;28;20041;-74
2023/09/04 07:35:10;;;;;;;84.13;79.97;;;23.90;99.90;;;;;;5034296;28;20037;-76
2023/09/04 07:37:36;;;;;;;64.57;61.38;;;24.00;99.90;;;;;;5032719;28;20029;-75
2023/09/04 07:40:05;;;;;;;79.00;75.05;;;24.10;99.90;;;;;;5034078;28;20029;-73
2023/09/04 07:42:31;;;;;;;69.03;65.55;;;24.20;99.90;;;;;;5033420;28;20045;-75
2023/09/04 07:44:57;;;;;;;74.97;71.35;;;24.10;99.90;;;;;;5032711;28;20021;-75
2023/09/04 07:47:23;;;;;;;120.75;114.97;;;24.30;99.90;;;;;;5015477;28;20041;-75
2023/09/04 07:49:53;;;;;;;129.23;123.07;;;24.40;99.90;;;;;;5032622;28;20030;-75
2023/09/04 07:52:20;;;;;;;137.18;130.63;;;24.40;99.90;;;;;;5032431;28;20049;-75
2023/09/04 07:54:48;;;;;;;134.43;128.05;;;24.40;99.90;;;;;;5033789;28;20045;-75
2023/09/04 07:57:15;;;;;;;142.50;135.55;;;24.50;99.90;;;;;;5033321;28;20386;-75
2023/09/04 07:59:41;;;;;;;117.13;111.53;;;24.70;99.90;;;;;;5033793;28;20104;-75
2023/09/04 08:02:07;;;;;;;110.85;105.50;;;24.60;99.90;;;;;;5032886;28;20080;-75
2023/09/04 08:04:34;;;;;;;90.22;85.93;;;24.70;99.90;;;;;;5016201;28;20059;-75
2023/09/04 08:07:00;;;;;;;128.32;122.22;;;24.80;99.90;;;;;;5033197;28;20394;-75
2023/09/04 08:09:26;;;;;;;113.50;108.00;;;24.80;99.90;;;;;;5032312;28;20060;-74
2023/09/04 08:11:52;;;;;;;87.20;82.82;;;24.70;99.90;;;;;;5032805;28;20037;-75
2023/09/04 08:14:18;;;;;;;85.60;81.38;;;24.90;99.90;;;;;;5032424;28;20041;-75
2023/09/04 08:16:44;;;;;;;66.60;63.25;;;25.10;99.90;;;;;;5031442;28;20406;-74
2023/09/04 08:19:10;;;;;;;75.88;71.90;;;25.30;99.90;;;;;;5033449;28;20033;-75
2023/09/04 08:21:36;;;;;;;86.00;81.80;;;25.50;99.90;;;;;;5031678;28;20037;-75
2023/09/04 08:24:02;;;;;;;93.95;89.35;;;25.50;99.90;;;;;;5033051;28;20391;-74
2023/09/04 08:26:29;;;;;;;85.28;80.97;;;25.60;99.90;;;;;;5032557;28;20033;-75
2023/09/04 08:28:55;;;;;;;83.72;79.60;;;25.70;99.90;;;;;;5033071;28;20033;-75
2023/09/04 08:31:21;;;;;;;88.63;84.15;;;25.70;99.90;;;;;;5032421;28;20037;-75
2023/09/04 08:33:47;;;;;;;81.68;77.57;;;25.80;99.90;;;;;;5031943;28;20033;-75
2023/09/04 08:36:13;;;;;;;104.30;99.32;;;25.90;99.90;;;;;;5032647;28;20037;-75
2023/09/04 08:38:40;;;;;;;82.47;78.38;;;26.00;99.90;;;;;;5033453;28;20033;-75
2023/09/04 08:41:08;;;;;;;80.15;76.10;;;26.00;99.90;;;;;;5032344;28;20025;-75
2023/09/04 08:43:35;;;;;;;90.05;85.65;;;26.10;99.90;;;;;;5032973;28;20382;-75
2023/09/04 08:46:03;;;;;;;87.00;82.68;;;26.20;99.90;;;;;;5014645;28;20048;-75
2023/09/04 08:48:30;;;;;;;90.97;86.57;;;26.30;99.90;;;;;;5031688;28;20026;-75
2023/09/04 08:50:56;;;;;;;102.35;97.40;;;26.30;99.90;;;;;;5031202;28;20029;-75
2023/09/04 08:53:22;;;;;;;84.57;80.43;;;26.30;99.90;;;;;;5031527;28;20499;-74
2023/09/04 08:55:49;;;;;;;101.07;96.07;;;26.30;99.90;;;;;;5032076;28;20451;-75
2023/09/04 08:58:16;;;;;;;68.22;64.80;;;26.40;99.90;;;;;;5031554;28;20026;-75
2023/09/04 09:00:46;;;;;;;71.20;67.55;;;26.60;99.90;;;;;;5030533;28;20034;-75
2023/09/04 09:03:13;;;;;;;;;;;26.70;99.90;;;;;;5031674;28;20410;-75
2023/09/04 09:05:39;;;;;;;63.95;60.70;;;26.80;99.90;;;;;;5031115;28;19991;-75
2023/09/04 09:08:05;;;;;;;75.90;72.00;;;26.70;99.90;;;;;;5031484;28;20025;-75
2023/09/04 09:10:31;;;;;;;55.25;52.47;;;26.60;99.90;;;;;;5030778;28;20037;-75
2023/09/04 09:12:57;;;;;;;62.63;59.38;;;26.60;99.90;;;;;;5031244;28;20049;-75
2023/09/04 09:15:23;;;;;;;66.78;63.45;;;26.80;99.90;;;;;;5031681;28;20033;-74
2023/09/04 09:17:53;;;;;;;78.47;74.60;;;26.90;99.90;;;;;;5030849;28;20033;-74
2023/09/04 09:20:32;;;;;;;75.07;71.45;;;27.00;99.90;;;;;;5032036;28;20030;-75
2023/09/04 09:22:59;;;;;;;78.57;74.70;;;27.20;99.90;;;;;;5030666;28;20033;-75
2023/09/04 09:25:25;;;;;;;108.63;103.30;;;27.30;99.90;;;;;;5030841;28;20276;-74
2023/09/04 09:27:51;;;;;;;109.47;104.18;;;27.30;99.90;;;;;;5031223;28;20033;-75
2023/09/04 09:30:17;;;;;;;126.20;120.18;;;27.40;99.90;;;;;;5031435;28;20036;-75
2023/09/04 09:32:43;;;;;;;125.30;119.25;;;27.50;99.90;;;;;;5032075;28;20042;-75
2023/09/04 09:35:09;;;;;;;130.07;123.57;;;27.70;99.90;;;;;;5031881;28;20026;-75
2023/09/04 09:37:35;;;;;;;214.13;203.75;;;27.80;99.90;;;;;;5031307;28;20037;-75
2023/09/04 09:40:08;;;;;;;202.15;192.15;;;27.90;99.90;;;;;;5032145;28;20026;-75
2023/09/04 09:42:35;;;;;;;265.23;252.68;;;27.90;99.90;;;;;;5031870;28;20037;-74
2023/09/04 09:45:01;;;;;;;294.45;280.40;;;28.00;99.90;;;;;;5032156;28;20029;-75
2023/09/04 09:47:27;;;;;;;318.90;303.42;;;28.00;99.90;;;;;;5029823;28;20037;-75
2023/09/04 09:49:55;;;;;;;255.48;243.20;;;28.10;99.90;;;;;;5031879;28;20036;-75
2023/09/04 09:52:21;;;;;;;224.27;212.93;;;28.20;99.90;;;;;;5031418;28;20063;-74
2023/09/04 09:54:47;;;;;;;307.65;292.83;;;28.10;99.90;;;;;;5032005;28;20490;-75
2023/09/04 09:57:14;;;;;;;276.98;263.73;;;28.20;99.90;;;;;;5031793;28;20041;-75
2023/09/04 09:59:50;;;;;;;347.98;330.58;;;28.20;99.90;;;;;;5030612;28;20388;-74
2023/09/04 10:02:23;;;;;;;271.60;258.35;;;28.20;99.90;;;;;;5009903;28;20037;-74
2023/09/04 10:04:49;;;;;;;330.70;314.42;;;28.30;99.90;;;;;;5027186;28;20034;-74
2023/09/04 10:07:20;;;;;;;270.52;257.40;;;28.50;99.90;;;;;;5030234;28;20045;-75
2023/09/04 10:09:47;;;;;;;295.17;280.90;;;28.60;99.90;;;;;;5014776;28;20033;-75
2023/09/04 10:12:31;;;;;;;256.20;243.82;;;28.50;99.90;;;;;;5014143;28;20498;-74
2023/09/04 10:14:58;;;;;;;263.58;250.52;;;28.50;99.90;;;;;;5031849;28;20372;-74
2023/09/04 10:17:35;;;;;;;263.27;250.80;;;28.60;99.90;;;;;;5013598;28;20399;-74
2023/09/04 10:20:04;;;;;;;272.77;259.42;;;28.70;99.90;;;;;;5030725;28;20026;-75
2023/09/04 10:22:36;;;;;;;290.52;276.30;;;28.80;99.90;;;;;;5013983;28;20029;-75
2023/09/04 10:25:07;;;;;;;355.40;337.42;;;28.90;99.90;;;;;;5030602;28;20034;-75
2023/09/04 10:27:39;;;;;;;286.63;272.52;;;29.00;99.90;;;;;;5031873;28;20041;-75
2023/09/04 10:30:06;;;;;;;336.25;319.58;;;29.20;99.90;;;;;;5014256;28;20030;-75
2023/09/04 10:32:33;;;;;;;292.83;278.70;;;29.20;99.90;;;;;;5029968;28;20390;-75
2023/09/04 10:35:01;;;;;;;323.70;307.70;;;29.20;99.90;;;;;;5030458;28;20025;-75
2023/09/04 10:37:29;;;;;;;288.42;274.38;;;29.40;99.90;;;;;;5029255;28;20033;-75
2023/09/04 10:39:55;;;;;;;323.27;306.85;;;29.50;99.90;;;;;;5030449;28;20029;-75
2023/09/04 10:42:23;;;;;;;298.73;284.02;;;29.50;99.90;;;;;;5030166;28;20037;-74
2023/09/04 10:44:53;;;;;;;238.02;226.45;;;29.50;99.90;;;;;;5030527;28;20028;-75
2023/09/04 10:47:20;;;;;;;294.05;279.75;;;29.50;99.90;;;;;;5030855;28;20042;-75
2023/09/04 10:49:46;;;;;;;342.10;325.23;;;29.60;99.90;;;;;;5033404;28;20463;-74
2023/09/04 10:52:13;;;;;;;262.98;250.15;;;29.60;99.90;;;;;;5033509;28;20037;-75
2023/09/04 10:54:39;;;;;;;318.27;302.60;;;29.70;99.90;;;;;;5017302;28;20041;-74
2023/09/04 10:57:07;;;;;;;339.80;322.85;;;29.60;99.90;;;;;;5034621;28;20031;-74
2023/09/04 10:59:58;;;;;;;311.85;296.38;;;29.60;99.90;;;;;;5034869;28;20033;-75
2023/09/04 11:02:27;;;;;;;362.95;344.50;;;29.70;99.90;;;;;;5034109;28;20044;-74
2023/09/04 11:04:53;;;;;;;290.88;276.30;;;29.70;99.90;;;;;;5032842;28;20060;-74
2023/09/04 11:07:19;;;;;;;343.27;325.92;;;29.80;99.90;;;;;;5016807;28;20037;-75
2023/09/04 11:09:52;;;;;;;307.48;291.88;;;29.80;99.90;;;;;;5034688;28;20030;-75
2023/09/04 11:12:19;;;;;;;281.42;267.48;;;29.90;99.90;;;;;;5033195;28;20044;-75
2023/09/04 11:14:46;;;;;;;205.52;195.30;;;29.90;99.90;;;;;;5034624;28;20036;-74
2023/09/04 11:17:15;;;;;;;273.25;259.83;;;29.90;99.90;;;;;;5033737;28;20482;-74
2023/09/04 11:19:41;;;;;;;244.40;232.43;;;30.00;99.90;;;;;;5033127;28;20037;-75
2023/09/04 11:22:21;;;;;;;260.08;247.40;;;30.00;99.90;;;;;;5033080;28;20037;-74
2023/09/04 11:24:47;;;;;;;239.30;227.60;;;30.10;99.90;;;;;;5033513;28;20486;-74
2023/09/04 11:27:13;;;;;;;280.77;266.92;;;30.10;99.90;;;;;;5033007;28;20033;-74
2023/09/04 11:29:39;;;;;;;284.67;270.50;;;30.20;99.90;;;;;;5033166;28;20033;-75
2023/09/04 11:32:07;;;;;;;242.00;230.18;;;30.30;99.90;;;;;;5033702;28;20053;-75
2023/09/04 11:34:33;;;;;;;248.02;235.85;;;30.40;99.90;;;;;;5032993;28;20029;-74
2023/09/04 11:36:59;;;;;;;229.20;218.02;;;30.40;99.90;;;;;;5034078;28;20029;-75
2023/09/04 11:39:26;;;;;;;234.73;223.27;;;30.50;99.90;;;;;;5032996;28;20359;-74
2023/09/04 11:41:52;;;;;;;190.60;181.27;;;30.50;99.90;;;;;;5016204;28;20040;-74
2023/09/04 11:44:18;;;;;;;195.35;185.57;;;30.50;99.90;;;;;;5034066;28;20025;-75
2023/09/04 11:46:44;;;;;;;187.35;178.15;;;30.70;99.80;;;;;;5032211;28;20030;-74
2023/09/04 11:49:10;;;;;;;222.98;211.45;;;30.60;99.10;;;;;;5032535;28;20033;-74
2023/09/04 11:51:37;;;;;;;205.93;195.32;;;30.60;99.50;;;;;;5032197;28;20042;-74
2023/09/04 11:54:04;;;;;;;172.45;163.70;;;30.50;99.90;;;;;;5032662;28;20490;-74
2023/09/04 11:56:30;;;;;;;256.33;243.40;;;30.50;99.70;;;;;;5033492;28;20040;-74
2023/09/04 11:58:58;;;;;;;259.38;246.57;;;30.50;99.60;;;;;;5032892;28;20049;-74
2023/09/04 12:01:24;;;;;;;217.25;206.65;;;30.60;99.90;;;;;;5033006;28;20034;-74
2023/09/04 12:03:53;;;;;;;234.05;222.23;;;30.70;99.90;;;;;;5032129;28;20029;-73
2023/09/04 12:06:19;;;;;;;178.20;169.07;;;30.80;99.60;;;;;;5016093;28;20386;-74
2023/09/04 12:08:45;;;;;;;204.52;194.68;;;30.80;99.50;;;;;;5032267;28;20048;-74
2023/09/04 12:11:11;;;;;;;249.50;237.13;;;30.70;99.80;;;;;;5032170;28;20033;-74
2023/09/04 12:13:37;;;;;;;279.02;265.30;;;30.80;99.90;;;;;;5032142;28;20041;-74
2023/09/04 12:16:07;;;;;;;245.40;233.38;;;30.80;99.90;;;;;;5031144;28;20395;-74
2023/09/04 12:18:39;;;;;;;708.75;448.40;;;31.00;99.80;;;;;;5033143;28;20029;-75